Private Wetterstation Sandau
Wetterdaten: Donnerstag, 06.12.2012
Datum Zeit Temp. A. Feuchte A. Luftdruck Regen Wind Richtung Richtung Taupunkt Windchill
06.12.2012 00:01 -1,9 C 87 % 1002,0 hPa 0,0 l/m 9,0 km/h (2 Bft) S-SW 202 -3,8 C -5,3 C
06.12.2012 00:06 -1,9 C 87 % 1002,0 hPa 0,0 l/m 5,8 km/h (2 Bft) S-SW 202 -3,8 C -4,1 C
06.12.2012 00:11 -1,9 C 87 % 1001,8 hPa 0,0 l/m 9,0 km/h (2 Bft) S-SO 157 -3,8 C -5,3 C
06.12.2012 00:16 -1,9 C 87 % 1001,7 hPa 0,0 l/m 13,7 km/h (3 Bft) S-SW 202 -3,8 C -6,5 C
06.12.2012 00:21 -1,9 C 87 % 1001,7 hPa 0,0 l/m 15,5 km/h (3 Bft) W-SW 247 -3,8 C -6,9 C
06.12.2012 00:26 -1,8 C 87 % 1001,9 hPa 0,0 l/m 8,3 km/h (2 Bft) S-SW 202 -3,7 C -5,0 C
06.12.2012 00:31 -1,8 C 87 % 1001,8 hPa 0,0 l/m 10,8 km/h (2 Bft) W-SW 247 -3,7 C -5,7 C
06.12.2012 00:36 -1,8 C 87 % 1001,7 hPa 0,0 l/m 6,5 km/h (2 Bft) S 180 -3,7 C -4,3 C
06.12.2012 00:41 -1,7 C 87 % 1001,7 hPa 0,0 l/m 8,3 km/h (2 Bft) S-SO 157 -3,6 C -4,8 C
06.12.2012 00:46 -1,7 C 87 % 1001,7 hPa 0,0 l/m 2,2 km/h (1 Bft) S-SO 157 -3,6 C -1,7 C
06.12.2012 00:51 -1,7 C 87 % 1001,6 hPa 0,0 l/m 13,3 km/h (3 Bft) SW 225 -3,6 C -6,2 C
06.12.2012 00:56 -1,7 C 87 % 1001,7 hPa 0,0 l/m 5,8 km/h (2 Bft) S-SW 202 -3,6 C -3,9 C
06.12.2012 01:01 -1,7 C 87 % 1001,5 hPa 0,0 l/m 7,9 km/h (2 Bft) S 180 -3,6 C -4,7 C
06.12.2012 01:06 -1,6 C 87 % 1001,5 hPa 0,0 l/m 6,1 km/h (2 Bft) S-SW 202 -3,5 C -3,9 C
06.12.2012 01:11 -1,6 C 87 % 1001,6 hPa 0,0 l/m 9,4 km/h (2 Bft) W-SW 247 -3,5 C -5,1 C
06.12.2012 01:16 -1,6 C 87 % 1001,6 hPa 0,0 l/m 6,5 km/h (2 Bft) S-SO 157 -3,5 C -4,1 C
06.12.2012 01:21 -1,6 C 87 % 1001,5 hPa 0,0 l/m 4,0 km/h (1 Bft) S 180 -3,5 C -1,6 C
06.12.2012 01:26 -1,6 C 87 % 1001,5 hPa 0,0 l/m 13,0 km/h (3 Bft) SW 225 -3,5 C -6,0 C
06.12.2012 01:31 -1,5 C 87 % 1001,4 hPa 0,0 l/m 12,6 km/h (3 Bft) S 180 -3,4 C -5,8 C
06.12.2012 01:36 -1,4 C 87 % 1001,3 hPa 0,0 l/m 14,4 km/h (3 Bft) S-SW 202 -3,3 C -6,0 C
06.12.2012 01:41 -1,4 C 87 % 1001,3 hPa 0,0 l/m 11,2 km/h (2 Bft) S 180 -3,3 C -5,3 C
06.12.2012 01:46 -1,3 C 87 % 1001,5 hPa 0,0 l/m 7,9 km/h (2 Bft) S 180 -3,2 C -4,2 C
06.12.2012 01:51 -1,3 C 87 % 1001,4 hPa 0,0 l/m 12,6 km/h (3 Bft) S-SW 202 -3,2 C -5,5 C
06.12.2012 01:56 -1,2 C 88 % 1001,4 hPa 0,0 l/m 4,7 km/h (1 Bft) S 180 -2,9 C -2,8 C
06.12.2012 02:01 -1,2 C 87 % 1001,5 hPa 0,0 l/m 6,5 km/h (2 Bft) SW 225 -3,1 C -3,6 C
06.12.2012 02:06 -1,2 C 88 % 1001,2 hPa 0,0 l/m 6,5 km/h (2 Bft) S-SW 202 -2,9 C -3,6 C
06.12.2012 02:11 -1,2 C 88 % 1001,3 hPa 0,0 l/m 7,9 km/h (2 Bft) S-SW 202 -2,9 C -4,1 C
06.12.2012 02:16 -1,2 C 88 % 1001,3 hPa 0,0 l/m 7,6 km/h (2 Bft) S-SW 202 -2,9 C -4,0 C
06.12.2012 02:21 -1,2 C 88 % 1001,3 hPa 0,0 l/m 4,0 km/h (1 Bft) S-SW 202 -2,9 C -1,2 C
06.12.2012 02:26 -1,2 C 88 % 1001,4 hPa 0,0 l/m 4,7 km/h (1 Bft) S-SW 202 -2,9 C -2,8 C
06.12.2012 02:31 -1,2 C 88 % 1001,3 hPa 0,0 l/m 5,0 km/h (1 Bft) S-SW 202 -2,9 C -3,0 C
06.12.2012 02:36 -1,2 C 88 % 1001,5 hPa 0,0 l/m 3,2 km/h (1 Bft) S-SW 202 -2,9 C -1,2 C
06.12.2012 02:41 -1,2 C 88 % 1001,5 hPa 0,0 l/m 5,8 km/h (2 Bft) S 180 -2,9 C -3,3 C
06.12.2012 02:46 -1,2 C 88 % 1001,4 hPa 0,0 l/m 4,3 km/h (1 Bft) S-SW 202 -2,9 C -1,2 C
06.12.2012 02:51 -1,2 C 88 % 1001,2 hPa 0,0 l/m 7,2 km/h (2 Bft) S-SW 202 -2,9 C -3,9 C
06.12.2012 02:56 -1,1 C 88 % 1001,1 hPa 0,0 l/m 6,5 km/h (2 Bft) S-SW 202 -2,8 C -3,5 C
06.12.2012 03:01 -1,2 C 88 % 1001,1 hPa 0,0 l/m 7,6 km/h (2 Bft) S 180 -2,9 C -4,0 C
06.12.2012 03:06 -1,2 C 88 % 1001,1 hPa 0,0 l/m 7,9 km/h (2 Bft) W-SW 247 -2,9 C -4,1 C
06.12.2012 03:11 -1,2 C 88 % 1001,1 hPa 0,0 l/m 13,7 km/h (3 Bft) S-SW 202 -2,9 C -5,6 C
06.12.2012 03:16 -1,2 C 88 % 1001,1 hPa 0,0 l/m 5,8 km/h (2 Bft) S 180 -2,9 C -3,3 C
06.12.2012 03:21 -1,2 C 88 % 1001,1 hPa 0,0 l/m 5,8 km/h (2 Bft) S-SW 202 -2,9 C -3,3 C
06.12.2012 03:26 -1,2 C 88 % 1001,2 hPa 0,0 l/m 6,1 km/h (2 Bft) W-SW 247 -2,9 C -3,4 C
06.12.2012 03:31 -1,2 C 88 % 1001,3 hPa 0,0 l/m 5,8 km/h (2 Bft) S-SW 202 -2,9 C -3,3 C
06.12.2012 03:36 -1,3 C 88 % 1001,2 hPa 0,0 l/m 8,6 km/h (2 Bft) S-SO 157 -3,0 C -4,5 C
06.12.2012 03:41 -1,4 C 88 % 1001,1 hPa 0,0 l/m 7,2 km/h (2 Bft) SW 225 -3,1 C -4,1 C
06.12.2012 03:46 -1,5 C 88 % 1001,1 hPa 0,0 l/m 6,1 km/h (2 Bft) SW 225 -3,2 C -3,8 C
06.12.2012 03:51 -1,6 C 87 % 1001,0 hPa 0,0 l/m 2,2 km/h (1 Bft) S-SO 157 -3,5 C -1,6 C
06.12.2012 03:56 -1,7 C 87 % 1001,1 hPa 0,0 l/m 1,4 km/h (1 Bft) S-SW 202 -3,6 C -1,7 C
06.12.2012 04:01 -1,8 C 87 % 1001,1 hPa 0,0 l/m 5,4 km/h (1 Bft) S-SW 202 -3,7 C -3,8 C
06.12.2012 04:06 -1,9 C 87 % 1001,2 hPa 0,0 l/m 0,0 km/h (0 Bft) S-SO 157 -3,8 C -1,9 C
06.12.2012 04:11 -2,1 C 87 % 1001,1 hPa 0,0 l/m 3,6 km/h (1 Bft) SW 225 -4,0 C -2,1 C
06.12.2012 04:16 -2,2 C 87 % 1001,2 hPa 0,0 l/m 4,0 km/h (1 Bft) S-SO 157 -4,1 C -2,2 C
06.12.2012 04:21 -2,4 C 87 % 1001,2 hPa 0,0 l/m 5,8 km/h (2 Bft) S-SW 202 -4,3 C -4,7 C
06.12.2012 04:26 -2,5 C 87 % 1001,1 hPa 0,0 l/m 3,2 km/h (1 Bft) S-SW 202 -4,4 C -2,5 C
06.12.2012 04:31 -2,6 C 87 % 1001,2 hPa 0,0 l/m 2,9 km/h (1 Bft) S-SW 202 -4,5 C -2,6 C
06.12.2012 04:36 -2,7 C 87 % 1001,1 hPa 0,0 l/m 4,3 km/h (1 Bft) S-SW 202 -4,6 C -2,7 C
06.12.2012 04:41 -2,7 C 88 % 1001,1 hPa 0,0 l/m 0,0 km/h (0 Bft) S-SO 157 -4,4 C -2,7 C
06.12.2012 04:46 -2,8 C 88 % 1001,1 hPa 0,0 l/m 3,2 km/h (1 Bft) S-SO 157 -4,5 C -2,8 C
06.12.2012 04:51 -2,8 C 88 % 1001,1 hPa 0,0 l/m 1,8 km/h (1 Bft) SO 135 -4,5 C -2,8 C
06.12.2012 04:56 -2,7 C 88 % 1001,2 hPa 0,0 l/m 5,0 km/h (1 Bft) S-SO 157 -4,4 C -4,7 C
06.12.2012 05:01 -2,7 C 88 % 1001,2 hPa 0,0 l/m 0,0 km/h (0 Bft) S-SO 157 -4,4 C -2,7 C
06.12.2012 05:06 -2,6 C 88 % 1001,2 hPa 0,0 l/m 3,6 km/h (1 Bft) S 180 -4,3 C -2,6 C
06.12.2012 05:11 -2,5 C 88 % 1001,2 hPa 0,0 l/m 0,0 km/h (0 Bft) S-SW 202 -4,2 C -2,5 C
06.12.2012 05:16 -2,4 C 89 % 1001,1 hPa 0,0 l/m 3,6 km/h (1 Bft) S-SO 157 -4,0 C -2,4 C
06.12.2012 05:21 -2,4 C 89 % 1001,0 hPa 0,0 l/m 4,0 km/h (1 Bft) S-SW 202 -4,0 C -2,4 C
06.12.2012 05:26 -2,2 C 89 % 1001,4 hPa 0,0 l/m 6,1 km/h (2 Bft) S 180 -3,8 C -4,6 C
06.12.2012 05:31 -2,2 C 89 % 1001,4 hPa 0,0 l/m 4,3 km/h (1 Bft) S-SO 157 -3,8 C -2,2 C
06.12.2012 05:36 -2,1 C 89 % 1001,4 hPa 0,0 l/m 0,0 km/h (0 Bft) S-SW 202 -3,7 C -2,1 C
06.12.2012 05:41 -1,9 C 89 % 1001,3 hPa 0,0 l/m 5,0 km/h (1 Bft) S 180 -3,5 C -3,7 C
06.12.2012 05:46 -1,8 C 89 % 1001,4 hPa 0,0 l/m 0,0 km/h (0 Bft) S-SO 157 -3,4 C -1,8 C
06.12.2012 05:51 -1,7 C 89 % 1001,4 hPa 0,0 l/m 0,0 km/h (0 Bft) SO 135 -3,3 C -1,7 C
06.12.2012 05:56 -1,7 C 89 % 1001,4 hPa 0,0 l/m 1,4 km/h (1 Bft) S-SO 157 -3,3 C -1,7 C
06.12.2012 06:01 -1,6 C 89 % 1001,4 hPa 0,0 l/m 0,0 km/h (0 Bft) O-SO 112 -3,2 C -1,6 C
06.12.2012 06:06 -1,6 C 89 % 1001,5 hPa 0,0 l/m 0,0 km/h (0 Bft) SO 135 -3,2 C -1,6 C
06.12.2012 06:11 -1,6 C 89 % 1001,5 hPa 0,0 l/m 1,1 km/h (1 Bft) S-SO 157 -3,2 C -1,6 C
06.12.2012 06:16 -1,5 C 89 % 1001,5 hPa 0,0 l/m 0,0 km/h (0 Bft) S-SO 157 -3,1 C -1,5 C
06.12.2012 06:21 -1,4 C 89 % 1001,6 hPa 0,0 l/m 0,0 km/h (0 Bft) O-SO 112 -3,0 C -1,4 C
06.12.2012 06:26 -1,4 C 89 % 1001,7 hPa 0,0 l/m 1,1 km/h (1 Bft) O-SO 112 -3,0 C -1,4 C
06.12.2012 06:31 -1,5 C 90 % 1001,9 hPa 0,0 l/m 1,4 km/h (1 Bft) O 90 -2,9 C -1,5 C
06.12.2012 06:36 -1,6 C 90 % 1001,8 hPa 0,0 l/m 2,5 km/h (1 Bft) O 90 -3,0 C -1,6 C
06.12.2012 06:41 -1,7 C 90 % 1001,9 hPa 0,0 l/m 2,9 km/h (1 Bft) O 90 -3,1 C -1,7 C
06.12.2012 06:46 -1,8 C 90 % 1002,1 hPa 0,0 l/m 2,9 km/h (1 Bft) NO 45 -3,2 C -1,8 C
06.12.2012 06:51 -1,9 C 90 % 1002,3 hPa 0,0 l/m 5,0 km/h (1 Bft) O-NO 67 -3,3 C -3,7 C
06.12.2012 06:56 -1,9 C 90 % 1002,2 hPa 0,0 l/m 6,5 km/h (2 Bft) O-NO 67 -3,3 C -4,4 C
06.12.2012 07:01 -1,9 C 91 % 1002,3 hPa 0,0 l/m 2,5 km/h (1 Bft) NO 45 -3,2 C -1,9 C
06.12.2012 07:06 -1,8 C 91 % 1002,3 hPa 0,0 l/m 3,2 km/h (1 Bft) NO 45 -3,1 C -1,8 C
06.12.2012 07:11 -1,8 C 91 % 1002,5 hPa 0,0 l/m 0,0 km/h (0 Bft) NO 45 -3,1 C -1,8 C
06.12.2012 07:16 -1,7 C 91 % 1002,4 hPa 0,0 l/m 0,0 km/h (0 Bft) NO 45 -3,0 C -1,7 C
06.12.2012 07:21 -1,6 C 91 % 1002,7 hPa 0,0 l/m 1,1 km/h (1 Bft) NO 45 -2,9 C -1,6 C
06.12.2012 07:26 -1,6 C 91 % 1002,9 hPa 0,0 l/m 0,0 km/h (0 Bft) NO 45 -2,9 C -1,6 C
06.12.2012 07:31 -1,6 C 91 % 1002,9 hPa 0,0 l/m 0,0 km/h (0 Bft) NO 45 -2,9 C -1,6 C
06.12.2012 07:36 -1,6 C 91 % 1003,1 hPa 0,0 l/m 0,0 km/h (0 Bft) NO 45 -2,9 C -1,6 C
06.12.2012 07:41 -1,6 C 91 % 1003,3 hPa 0,0 l/m 2,5 km/h (1 Bft) N-NO 22 -2,9 C -1,6 C
06.12.2012 07:46 -1,6 C 91 % 1003,3 hPa 0,0 l/m 4,3 km/h (1 Bft) N-NO 22 -2,9 C -1,6 C
06.12.2012 07:51 -1,6 C 91 % 1003,5 hPa 0,0 l/m 4,0 km/h (1 Bft) N-NO 22 -2,9 C -1,6 C
06.12.2012 07:56 -1,7 C 91 % 1003,5 hPa 0,0 l/m 5,0 km/h (1 Bft) N-NO 22 -3,0 C -3,5 C
06.12.2012 08:01 -1,7 C 91 % 1003,7 hPa 0,0 l/m 2,9 km/h (1 Bft) N-NO 22 -3,0 C -1,7 C
06.12.2012 08:06 -1,7 C 91 % 1004,0 hPa 0,0 l/m 4,3 km/h (1 Bft) N-NO 22 -3,0 C -1,7 C
06.12.2012 08:11 -1,7 C 92 % 1003,9 hPa 0,0 l/m 0,0 km/h (0 Bft) N 360 -2,8 C -1,7 C
06.12.2012 08:16 -1,7 C 92 % 1004,2 hPa 0,0 l/m 6,8 km/h (2 Bft) N 360 -2,8 C -4,3 C
06.12.2012 08:21 -1,7 C 92 % 1004,2 hPa 0,0 l/m 9,7 km/h (2 Bft) NO 45 -2,8 C -5,3 C
06.12.2012 08:26 -1,8 C 92 % 1004,4 hPa 0,0 l/m 7,9 km/h (2 Bft) N-NO 22 -2,9 C -4,8 C
06.12.2012 08:31 -1,8 C 92 % 1004,6 hPa 0,0 l/m 9,7 km/h (2 Bft) NO 45 -2,9 C -5,4 C
06.12.2012 08:36 -1,9 C 91 % 1004,7 hPa 0,0 l/m 15,8 km/h (3 Bft) N 360 -3,2 C -6,9 C
06.12.2012 08:41 -1,9 C 91 % 1004,7 hPa 0,0 l/m 7,6 km/h (2 Bft) N-NO 22 -3,2 C -4,8 C
06.12.2012 08:46 -1,9 C 91 % 1005,0 hPa 0,0 l/m 13,0 km/h (3 Bft) NO 45 -3,2 C -6,3 C
06.12.2012 08:51 -2,0 C 91 % 1005,1 hPa 0,0 l/m 10,1 km/h (2 Bft) NO 45 -3,3 C -5,7 C
06.12.2012 08:56 -1,9 C 91 % 1005,5 hPa 0,0 l/m 11,2 km/h (2 Bft) N 360 -3,2 C -5,9 C
06.12.2012 09:01 -1,9 C 91 % 1005,5 hPa 0,0 l/m 10,4 km/h (2 Bft) N-NO 22 -3,2 C -5,7 C
06.12.2012 09:06 -1,8 C 91 % 1005,6 hPa 0,0 l/m 16,6 km/h (3 Bft) N 360 -3,1 C -6,9 C
06.12.2012 09:11 -1,8 C 91 % 1005,9 hPa 0,0 l/m 14,4 km/h (3 Bft) N 360 -3,1 C -6,5 C
06.12.2012 09:16 -1,7 C 90 % 1006,0 hPa 0,0 l/m 11,2 km/h (2 Bft) NO 45 -3,1 C -5,7 C
06.12.2012 09:21 -1,7 C 90 % 1006,1 hPa 0,0 l/m 16,6 km/h (3 Bft) N 360 -3,1 C -6,8 C
06.12.2012 09:26 -1,7 C 90 % 1006,3 hPa 0,0 l/m 8,3 km/h (2 Bft) N-NO 22 -3,1 C -4,8 C
06.12.2012 09:31 -1,5 C 89 % 1006,4 hPa 0,0 l/m 8,3 km/h (2 Bft) N-NO 22 -3,1 C -4,6 C
06.12.2012 09:36 -1,4 C 89 % 1006,4 hPa 0,0 l/m 13,3 km/h (3 Bft) N 360 -3,0 C -5,8 C
06.12.2012 09:41 -1,4 C 89 % 1006,9 hPa 0,0 l/m 10,1 km/h (2 Bft) N-NO 22 -3,0 C -5,0 C
06.12.2012 09:46 -1,3 C 88 % 1007,0 hPa 0,0 l/m 10,1 km/h (2 Bft) N 360 -3,0 C -4,9 C
06.12.2012 09:51 -1,3 C 87 % 1007,0 hPa 0,0 l/m 16,6 km/h (3 Bft) N-NO 22 -3,2 C -6,3 C
06.12.2012 09:56 -1,3 C 87 % 1007,1 hPa 0,0 l/m 16,9 km/h (3 Bft) NO 45 -3,2 C -6,4 C
06.12.2012 10:01 -1,2 C 86 % 1007,4 hPa 0,0 l/m 16,6 km/h (3 Bft) N 360 -3,2 C -6,2 C
06.12.2012 10:06 -1,2 C 86 % 1007,5 hPa 0,0 l/m 7,6 km/h (2 Bft) N-NW 337 -3,2 C -4,0 C
06.12.2012 10:11 -1,1 C 86 % 1007,3 hPa 0,0 l/m 11,5 km/h (2 Bft) N-NO 22 -3,1 C -5,0 C
06.12.2012 10:16 -1,0 C 86 % 1007,5 hPa 0,0 l/m 4,3 km/h (1 Bft) N 360 -3,0 C -1,0 C
06.12.2012 10:21 -0,9 C 85 % 1007,8 hPa 0,0 l/m 13,7 km/h (3 Bft) N 360 -3,1 C -5,3 C
06.12.2012 10:26 -0,9 C 84 % 1008,0 hPa 0,0 l/m 12,2 km/h (2 Bft) N 360 -3,3 C -4,9 C
06.12.2012 10:31 -1,0 C 84 % 1008,1 hPa 0,0 l/m 3,6 km/h (1 Bft) NO 45 -3,4 C -1,0 C
06.12.2012 10:36 -1,0 C 84 % 1008,2 hPa 0,0 l/m 4,0 km/h (1 Bft) N-NO 22 -3,4 C -1,0 C
06.12.2012 10:41 -1,1 C 84 % 1008,3 hPa 0,0 l/m 3,2 km/h (1 Bft) W 270 -3,4 C -1,1 C
06.12.2012 10:46 -1,1 C 84 % 1008,3 hPa 0,0 l/m 10,1 km/h (2 Bft) N 360 -3,4 C -4,7 C
06.12.2012 10:51 -1,1 C 85 % 1008,5 hPa 0,0 l/m 4,0 km/h (1 Bft) N-NW 337 -3,3 C -1,1 C
06.12.2012 10:56 -1,1 C 85 % 1008,3 hPa 0,0 l/m 3,2 km/h (1 Bft) NW 315 -3,3 C -1,1 C
06.12.2012 11:01 -1,0 C 85 % 1008,3 hPa 0,0 l/m 3,6 km/h (1 Bft) NW 315 -3,2 C -1,0 C
06.12.2012 11:06 -0,7 C 85 % 1008,4 hPa 0,0 l/m 4,7 km/h (1 Bft) NW 315 -2,9 C -2,2 C
06.12.2012 11:11 -0,4 C 85 % 1008,6 hPa 0,0 l/m 13,0 km/h (3 Bft) W 270 -2,6 C -4,5 C
06.12.2012 11:16 -0,1 C 84 % 1008,7 hPa 0,0 l/m 10,8 km/h (2 Bft) NW 315 -2,5 C -3,6 C
06.12.2012 11:21 0,1 C 83 % 1008,8 hPa 0,0 l/m 7,9 km/h (2 Bft) NW 315 -2,4 C -2,6 C
06.12.2012 11:26 0,1 C 82 % 1008,8 hPa 0,0 l/m 6,1 km/h (2 Bft) N 360 -2,6 C -1,9 C
06.12.2012 11:31 -0,1 C 82 % 1008,8 hPa 0,0 l/m 6,1 km/h (2 Bft) W-NW 292 -2,8 C -2,2 C
06.12.2012 11:36 -0,3 C 81 % 1009,1 hPa 0,0 l/m 13,7 km/h (3 Bft) N-NW 337 -3,2 C -4,5 C
06.12.2012 11:41 -0,6 C 81 % 1009,1 hPa 0,0 l/m 17,3 km/h (3 Bft) W 270 -3,4 C -5,6 C
06.12.2012 11:46 -0,8 C 81 % 1009,2 hPa 0,0 l/m 18,4 km/h (3 Bft) N-NW 337 -3,6 C -6,0 C
06.12.2012 11:51 -0,9 C 82 % 1009,2 hPa 0,0 l/m 15,8 km/h (3 Bft) NW 315 -3,6 C -5,7 C
06.12.2012 11:56 -1,1 C 81 % 1009,3 hPa 0,0 l/m 19,8 km/h (3 Bft) N-NW 337 -3,9 C -6,6 C
06.12.2012 12:01 -1,1 C 81 % 1009,4 hPa 0,0 l/m 7,2 km/h (2 Bft) W-NW 292 -3,9 C -3,8 C
06.12.2012 12:06 -1,1 C 81 % 1009,5 hPa 0,0 l/m 8,3 km/h (2 Bft) NW 315 -3,9 C -4,1 C
06.12.2012 12:11 -1,1 C 81 % 1009,6 hPa 0,0 l/m 13,3 km/h (3 Bft) N-NW 337 -3,9 C -5,4 C
06.12.2012 12:16 -1,1 C 81 % 1009,6 hPa 0,0 l/m 12,6 km/h (3 Bft) W 270 -3,9 C -5,3 C
06.12.2012 12:21 -1,1 C 81 % 1009,7 hPa 0,0 l/m 10,8 km/h (2 Bft) NW 315 -3,9 C -4,8 C
06.12.2012 12:26 -1,1 C 81 % 1009,7 hPa 0,0 l/m 8,6 km/h (2 Bft) N-NW 337 -3,9 C -4,2 C
06.12.2012 12:31 -1,1 C 81 % 1009,7 hPa 0,0 l/m 13,3 km/h (3 Bft) W-NW 292 -3,9 C -5,4 C
06.12.2012 12:36 -0,9 C 81 % 1010,0 hPa 0,0 l/m 17,3 km/h (3 Bft) W-NW 292 -3,7 C -5,9 C
06.12.2012 12:41 -0,9 C 81 % 1010,0 hPa 0,0 l/m 10,1 km/h (2 Bft) W-NW 292 -3,7 C -4,4 C
06.12.2012 12:46 -0,9 C 81 % 1010,0 hPa 0,0 l/m 13,3 km/h (3 Bft) W-NW 292 -3,7 C -5,2 C
06.12.2012 12:51 -1,0 C 81 % 1010,2 hPa 0,0 l/m 11,9 km/h (2 Bft) NW 315 -3,8 C -5,0 C
06.12.2012 12:56 -1,1 C 81 % 1010,2 hPa 0,0 l/m 7,2 km/h (2 Bft) NW 315 -3,9 C -3,8 C
06.12.2012 13:01 -1,1 C 81 % 1010,3 hPa 0,0 l/m 18,0 km/h (3 Bft) W-NW 292 -3,9 C -6,3 C
06.12.2012 13:06 -1,1 C 81 % 1010,2 hPa 0,0 l/m 10,8 km/h (2 Bft) N-NW 337 -3,9 C -4,8 C
06.12.2012 13:11 -1,1 C 81 % 1010,4 hPa 0,0 l/m 13,3 km/h (3 Bft) W-NW 292 -3,9 C -5,4 C
06.12.2012 13:16 -1,1 C 81 % 1010,3 hPa 0,0 l/m 19,4 km/h (3 Bft) W-NW 292 -3,9 C -6,5 C
06.12.2012 13:21 -1,2 C 80 % 1010,3 hPa 0,0 l/m 19,1 km/h (3 Bft) NW 315 -4,2 C -6,6 C
06.12.2012 13:26 -1,3 C 81 % 1010,6 hPa 0,0 l/m 8,6 km/h (2 Bft) W-NW 292 -4,1 C -4,5 C
06.12.2012 13:31 -1,4 C 81 % 1010,5 hPa 0,0 l/m 5,8 km/h (2 Bft) W-NW 292 -4,2 C -3,5 C
06.12.2012 13:36 -1,4 C 81 % 1010,6 hPa 0,0 l/m 0,0 km/h (0 Bft) W-NW 292 -4,2 C -1,4 C
06.12.2012 13:41 -1,3 C 81 % 1010,7 hPa 0,0 l/m 12,6 km/h (3 Bft) NW 315 -4,1 C -5,5 C
06.12.2012 13:46 -1,2 C 81 % 1010,7 hPa 0,0 l/m 13,3 km/h (3 Bft) NW 315 -4,0 C -5,5 C
06.12.2012 13:51 -1,1 C 81 % 1010,8 hPa 0,0 l/m 18,7 km/h (3 Bft) W-NW 292 -3,9 C -6,4 C
06.12.2012 13:56 -1,1 C 81 % 1010,8 hPa 0,0 l/m 10,8 km/h (2 Bft) W-NW 292 -3,9 C -4,8 C
06.12.2012 14:01 -1,1 C 80 % 1010,8 hPa 0,0 l/m 11,9 km/h (2 Bft) NW 315 -4,1 C -5,1 C
06.12.2012 14:06 -1,1 C 80 % 1011,0 hPa 0,0 l/m 7,2 km/h (2 Bft) W 270 -4,1 C -3,8 C
06.12.2012 14:11 -1,2 C 79 % 1011,0 hPa 0,0 l/m 20,2 km/h (4 Bft) W-NW 292 -4,4 C -6,8 C
06.12.2012 14:16 -1,6 C 79 % 1011,2 hPa 0,0 l/m 11,9 km/h (2 Bft) W-NW 292 -4,8 C -5,7 C
06.12.2012 14:21 -1,9 C 80 % 1011,3 hPa 0,0 l/m 9,0 km/h (2 Bft) W-NW 292 -4,9 C -5,3 C
06.12.2012 14:26 -2,1 C 80 % 1011,3 hPa 0,0 l/m 15,5 km/h (3 Bft) W-NW 292 -5,1 C -7,1 C
06.12.2012 14:31 -2,2 C 81 % 1011,6 hPa 0,0 l/m 9,4 km/h (2 Bft) W-NW 292 -5,0 C -5,8 C
06.12.2012 14:36 -2,4 C 81 % 1011,5 hPa 0,0 l/m 9,7 km/h (2 Bft) W 270 -5,2 C -6,1 C
06.12.2012 14:41 -2,4 C 81 % 1011,7 hPa 0,0 l/m 4,7 km/h (1 Bft) W 270 -5,2 C -4,2 C
06.12.2012 14:46 -2,6 C 82 % 1011,8 hPa 0,0 l/m 16,6 km/h (3 Bft) NW 315 -5,2 C -7,9 C
06.12.2012 14:51 -2,7 C 82 % 1011,9 hPa 0,0 l/m 10,8 km/h (2 Bft) NW 315 -5,3 C -6,8 C
06.12.2012 14:56 -2,7 C 82 % 1012,0 hPa 0,0 l/m 7,6 km/h (2 Bft) W-NW 292 -5,3 C -5,8 C
06.12.2012 15:01 -2,7 C 82 % 1012,1 hPa 0,0 l/m 7,6 km/h (2 Bft) N-NW 337 -5,3 C -5,8 C
06.12.2012 15:06 -2,6 C 83 % 1012,1 hPa 0,0 l/m 8,6 km/h (2 Bft) NW 315 -5,1 C -6,0 C
06.12.2012 15:11 -2,5 C 82 % 1012,2 hPa 0,0 l/m 10,4 km/h (2 Bft) N-NW 337 -5,1 C -6,4 C
06.12.2012 15:16 -2,6 C 82 % 1012,2 hPa 0,0 l/m 5,0 km/h (1 Bft) W-NW 292 -5,2 C -4,5 C
06.12.2012 15:21 -2,7 C 82 % 1012,3 hPa 0,0 l/m 13,0 km/h (3 Bft) W 270 -5,3 C -7,3 C
06.12.2012 15:26 -2,8 C 81 % 1012,5 hPa 0,0 l/m 8,6 km/h (2 Bft) W 270 -5,6 C -6,2 C
06.12.2012 15:31 -2,9 C 81 % 1012,6 hPa 0,0 l/m 8,6 km/h (2 Bft) W-NW 292 -5,7 C -6,3 C
06.12.2012 15:36 -2,9 C 81 % 1012,6 hPa 0,0 l/m 7,9 km/h (2 Bft) W-NW 292 -5,7 C -6,1 C
06.12.2012 15:41 -3,1 C 81 % 1012,6 hPa 0,0 l/m 4,0 km/h (1 Bft) W-NW 292 -5,9 C -3,1 C
06.12.2012 15:46 -3,1 C 81 % 1012,6 hPa 0,0 l/m 10,1 km/h (2 Bft) W 270 -5,9 C -7,0 C
06.12.2012 15:51 -3,2 C 81 % 1012,7 hPa 0,0 l/m 10,1 km/h (2 Bft) W 270 -6,0 C -7,2 C
06.12.2012 15:56 -3,4 C 81 % 1012,7 hPa 0,0 l/m 7,9 km/h (2 Bft) W-NW 292 -6,2 C -6,7 C
06.12.2012 16:01 -3,4 C 81 % 1012,8 hPa 0,0 l/m 11,9 km/h (2 Bft) W 270 -6,2 C -7,9 C
06.12.2012 16:06 -3,5 C 81 % 1012,9 hPa 0,0 l/m 8,3 km/h (2 Bft) N-NW 337 -6,3 C -7,0 C
06.12.2012 16:11 -3,5 C 81 % 1012,8 hPa 0,0 l/m 11,9 km/h (2 Bft) W-NW 292 -6,3 C -8,0 C
06.12.2012 16:16 -3,6 C 81 % 1012,8 hPa 0,0 l/m 7,9 km/h (2 Bft) W 270 -6,4 C -6,9 C
06.12.2012 16:21 -3,6 C 81 % 1013,0 hPa 0,0 l/m 13,3 km/h (3 Bft) NW 315 -6,4 C -8,5 C
06.12.2012 16:26 -3,6 C 81 % 1013,1 hPa 0,0 l/m 9,0 km/h (2 Bft) NW 315 -6,4 C -7,3 C
06.12.2012 16:31 -3,7 C 81 % 1013,1 hPa 0,0 l/m 6,1 km/h (2 Bft) W-NW 292 -6,5 C -6,3 C
06.12.2012 16:36 -3,7 C 81 % 1013,2 hPa 0,0 l/m 7,6 km/h (2 Bft) W 270 -6,5 C -6,9 C
06.12.2012 16:41 -3,8 C 81 % 1013,3 hPa 0,0 l/m 13,0 km/h (3 Bft) W-NW 292 -6,6 C -8,7 C
06.12.2012 16:46 -3,9 C 81 % 1013,4 hPa 0,0 l/m 5,0 km/h (1 Bft) W 270 -6,7 C -6,0 C
06.12.2012 16:51 -3,9 C 81 % 1013,4 hPa 0,0 l/m 4,0 km/h (1 Bft) W 270 -6,7 C -3,9 C
06.12.2012 16:56 -4,1 C 81 % 1013,4 hPa 0,0 l/m 5,8 km/h (2 Bft) W-NW 292 -6,9 C -6,6 C
06.12.2012 17:01 -4,1 C 82 % 1013,4 hPa 0,0 l/m 5,8 km/h (2 Bft) W 270 -6,7 C -6,6 C
06.12.2012 17:06 -4,1 C 82 % 1013,4 hPa 0,0 l/m 7,2 km/h (2 Bft) W-NW 292 -6,7 C -7,3 C
06.12.2012 17:11 -4,2 C 82 % 1013,5 hPa 0,0 l/m 7,6 km/h (2 Bft) W-NW 292 -6,8 C -7,5 C
06.12.2012 17:16 -4,2 C 82 % 1013,6 hPa 0,0 l/m 2,9 km/h (1 Bft) W 270 -6,8 C -4,2 C
06.12.2012 17:21 -4,4 C 82 % 1013,6 hPa 0,0 l/m 6,5 km/h (2 Bft) W 270 -7,0 C -7,3 C
06.12.2012 17:26 -4,5 C 82 % 1013,7 hPa 0,0 l/m 1,8 km/h (1 Bft) W-NW 292 -7,1 C -4,5 C
06.12.2012 17:31 -4,5 C 82 % 1013,7 hPa 0,0 l/m 5,8 km/h (2 Bft) W-SW 247 -7,1 C -7,1 C
06.12.2012 17:36 -4,6 C 82 % 1013,9 hPa 0,0 l/m 4,0 km/h (1 Bft) W-NW 292 -7,2 C -4,6 C
06.12.2012 17:41 -4,7 C 82 % 1013,9 hPa 0,0 l/m 3,6 km/h (1 Bft) W 270 -7,3 C -4,7 C
06.12.2012 17:46 -4,7 C 83 % 1013,8 hPa 0,0 l/m 0,0 km/h (0 Bft) W 270 -7,1 C -4,7 C
06.12.2012 17:51 -4,9 C 82 % 1013,9 hPa 0,0 l/m 1,8 km/h (1 Bft) W 270 -7,5 C -4,9 C
06.12.2012 17:56 -5,1 C 82 % 1014,0 hPa 0,0 l/m 4,7 km/h (1 Bft) W-NW 292 -7,7 C -7,2 C
06.12.2012 18:01 -5,2 C 82 % 1014,0 hPa 0,0 l/m 0,0 km/h (0 Bft) W-NW 292 -7,8 C -5,2 C
06.12.2012 18:06 -5,3 C 82 % 1014,0 hPa 0,0 l/m 3,2 km/h (1 Bft) W-NW 292 -7,9 C -5,3 C
06.12.2012 18:11 -5,4 C 83 % 1014,1 hPa 0,0 l/m 0,0 km/h (0 Bft) W 270 -7,8 C -5,4 C
06.12.2012 18:16 -5,4 C 83 % 1014,1 hPa 0,0 l/m 2,9 km/h (1 Bft) W 270 -7,8 C -5,4 C
06.12.2012 18:21 -5,5 C 83 % 1014,0 hPa 0,0 l/m 0,0 km/h (0 Bft) W 270 -7,9 C -5,5 C
06.12.2012 18:26 -5,5 C 83 % 1014,1 hPa 0,0 l/m 3,6 km/h (1 Bft) W-NW 292 -7,9 C -5,5 C
06.12.2012 18:31 -5,6 C 84 % 1014,0 hPa 0,0 l/m 3,6 km/h (1 Bft) W 270 -7,9 C -5,6 C
06.12.2012 18:36 -5,6 C 84 % 1014,2 hPa 0,0 l/m 1,8 km/h (1 Bft) W 270 -7,9 C -5,6 C
06.12.2012 18:41 -5,6 C 84 % 1014,2 hPa 0,0 l/m 8,6 km/h (2 Bft) W 270 -7,9 C -9,5 C
06.12.2012 18:46 -5,6 C 84 % 1014,3 hPa 0,0 l/m 5,0 km/h (1 Bft) W 270 -7,9 C -7,9 C
06.12.2012 18:51 -5,7 C 84 % 1014,3 hPa 0,0 l/m 3,2 km/h (1 Bft) W 270 -8,0 C -5,7 C
06.12.2012 18:56 -5,7 C 84 % 1014,3 hPa 0,0 l/m 4,7 km/h (1 Bft) W 270 -8,0 C -7,9 C
06.12.2012 19:01 -5,8 C 84 % 1014,3 hPa 0,0 l/m 2,9 km/h (1 Bft) W 270 -8,1 C -5,8 C
06.12.2012 19:06 -5,9 C 84 % 1014,3 hPa 0,0 l/m 4,7 km/h (1 Bft) W-SW 247 -8,2 C -8,1 C
06.12.2012 19:11 -5,9 C 85 % 1014,4 hPa 0,0 l/m 4,7 km/h (1 Bft) W-SW 247 -8,0 C -8,1 C
06.12.2012 19:16 -5,9 C 85 % 1014,4 hPa 0,0 l/m 0,0 km/h (0 Bft) W 270 -8,0 C -5,9 C
06.12.2012 19:21 -5,9 C 85 % 1014,4 hPa 0,0 l/m 5,4 km/h (1 Bft) W 270 -8,0 C -8,5 C
06.12.2012 19:26 -5,9 C 85 % 1014,4 hPa 0,0 l/m 4,0 km/h (1 Bft) W 270 -8,0 C -5,9 C
06.12.2012 19:31 -5,9 C 85 % 1014,4 hPa 0,0 l/m 7,6 km/h (2 Bft) W 270 -8,0 C -9,5 C
06.12.2012 19:36 -5,8 C 85 % 1014,5 hPa 0,0 l/m 2,2 km/h (1 Bft) W 270 -7,9 C -5,8 C
06.12.2012 19:41 -5,8 C 86 % 1014,4 hPa 0,0 l/m 1,4 km/h (1 Bft) W 270 -7,8 C -5,8 C
06.12.2012 19:46 -5,7 C 86 % 1014,4 hPa 0,0 l/m 5,0 km/h (1 Bft) W 270 -7,7 C -8,1 C
06.12.2012 19:51 -5,7 C 86 % 1014,4 hPa 0,0 l/m 3,2 km/h (1 Bft) W 270 -7,7 C -5,7 C
06.12.2012 19:56 -5,7 C 86 % 1014,2 hPa 0,0 l/m 7,6 km/h (2 Bft) W 270 -7,7 C -9,3 C
06.12.2012 20:01 -5,6 C 86 % 1014,4 hPa 0,0 l/m 4,7 km/h (1 Bft) W 270 -7,6 C -7,8 C
06.12.2012 20:06 -5,6 C 86 % 1014,3 hPa 0,0 l/m 3,6 km/h (1 Bft) W 270 -7,6 C -5,6 C
06.12.2012 20:11 -5,6 C 86 % 1014,4 hPa 0,0 l/m 5,8 km/h (2 Bft) W-SW 247 -7,6 C -8,4 C
06.12.2012 20:16 -5,6 C 86 % 1014,4 hPa 0,0 l/m 4,7 km/h (1 Bft) W-SW 247 -7,6 C -7,8 C
06.12.2012 20:21 -5,5 C 86 % 1014,4 hPa 0,0 l/m 3,2 km/h (1 Bft) W-SW 247 -7,5 C -5,5 C
06.12.2012 20:26 -5,4 C 86 % 1014,4 hPa 0,0 l/m 2,9 km/h (1 Bft) SW 225 -7,4 C -5,4 C
06.12.2012 20:31 -5,4 C 87 % 1014,6 hPa 0,0 l/m 2,5 km/h (1 Bft) SW 225 -7,2 C -5,4 C
06.12.2012 20:36 -5,4 C 87 % 1014,5 hPa 0,0 l/m 2,5 km/h (1 Bft) SW 225 -7,2 C -5,4 C
06.12.2012 20:41 -5,4 C 87 % 1014,5 hPa 0,0 l/m 1,8 km/h (1 Bft) SW 225 -7,2 C -5,4 C
06.12.2012 20:46 -5,5 C 87 % 1014,5 hPa 0,0 l/m 2,9 km/h (1 Bft) S-SW 202 -7,3 C -5,5 C
06.12.2012 20:51 -5,6 C 87 % 1014,5 hPa 0,0 l/m 2,2 km/h (1 Bft) S-SW 202 -7,4 C -5,6 C
06.12.2012 20:56 -5,6 C 87 % 1014,5 hPa 0,0 l/m 2,9 km/h (1 Bft) S-SW 202 -7,4 C -5,6 C
06.12.2012 21:01 -5,7 C 87 % 1014,5 hPa 0,0 l/m 3,2 km/h (1 Bft) S 180 -7,5 C -5,7 C
06.12.2012 21:06 -5,8 C 87 % 1014,6 hPa 0,0 l/m 3,2 km/h (1 Bft) S-SO 157 -7,6 C -5,8 C
06.12.2012 21:11 -5,9 C 87 % 1014,6 hPa 0,0 l/m 2,2 km/h (1 Bft) S 180 -7,7 C -5,9 C
06.12.2012 21:16 -6,1 C 87 % 1014,6 hPa 0,0 l/m 4,7 km/h (1 Bft) S 180 -7,9 C -8,3 C
06.12.2012 21:21 -6,1 C 87 % 1014,5 hPa 0,0 l/m 2,2 km/h (1 Bft) S 180 -7,9 C -6,1 C
06.12.2012 21:26 -6,2 C 87 % 1014,6 hPa 0,0 l/m 1,4 km/h (1 Bft) S-SO 157 -8,0 C -6,2 C
06.12.2012 21:31 -6,1 C 87 % 1014,4 hPa 0,0 l/m 2,5 km/h (1 Bft) S-SO 157 -7,9 C -6,1 C
06.12.2012 21:36 -6,1 C 87 % 1014,3 hPa 0,0 l/m 2,2 km/h (1 Bft) S 180 -7,9 C -6,1 C
06.12.2012 21:41 -6,1 C 87 % 1014,3 hPa 0,0 l/m 3,6 km/h (1 Bft) S-SW 202 -7,9 C -6,1 C
06.12.2012 21:46 -5,9 C 88 % 1014,4 hPa 0,0 l/m 0,0 km/h (0 Bft) S 180 -7,6 C -5,9 C
06.12.2012 21:51 -5,8 C 88 % 1014,3 hPa 0,0 l/m 0,0 km/h (0 Bft) S 180 -7,5 C -5,8 C
06.12.2012 21:56 -5,7 C 88 % 1014,2 hPa 0,0 l/m 0,0 km/h (0 Bft) S 180 -7,4 C -5,7 C
06.12.2012 22:01 -5,6 C 88 % 1014,1 hPa 0,0 l/m 2,9 km/h (1 Bft) S-SW 202 -7,3 C -5,6 C
06.12.2012 22:06 -5,6 C 88 % 1014,2 hPa 0,0 l/m 0,0 km/h (0 Bft) SW 225 -7,3 C -5,6 C
06.12.2012 22:11 -5,6 C 88 % 1014,1 hPa 0,0 l/m 1,4 km/h (1 Bft) S-SW 202 -7,3 C -5,6 C
06.12.2012 22:16 -5,6 C 88 % 1014,2 hPa 0,0 l/m 4,3 km/h (1 Bft) SW 225 -7,3 C -5,6 C
06.12.2012 22:21 -5,6 C 88 % 1014,2 hPa 0,0 l/m 3,2 km/h (1 Bft) S-SW 202 -7,3 C -5,6 C
06.12.2012 22:26 -5,6 C 88 % 1014,3 hPa 0,0 l/m 2,5 km/h (1 Bft) S-SW 202 -7,3 C -5,6 C
06.12.2012 22:31 -5,6 C 88 % 1014,3 hPa 0,0 l/m 0,0 km/h (0 Bft) SW 225 -7,3 C -5,6 C
06.12.2012 22:36 -5,7 C 88 % 1014,1 hPa 0,0 l/m 3,2 km/h (1 Bft) W-SW 247 -7,4 C -5,7 C
06.12.2012 22:41 -5,7 C 88 % 1014,3 hPa 0,0 l/m 3,2 km/h (1 Bft) S 180 -7,4 C -5,7 C
06.12.2012 22:46 -5,7 C 88 % 1014,3 hPa 0,0 l/m 1,1 km/h (1 Bft) S-SW 202 -7,4 C -5,7 C
06.12.2012 22:51 -5,7 C 88 % 1014,2 hPa 0,0 l/m 0,0 km/h (0 Bft) S-SO 157 -7,4 C -5,7 C
06.12.2012 22:56 -5,7 C 88 % 1014,3 hPa 0,0 l/m 0,0 km/h (0 Bft) S 180 -7,4 C -5,7 C
06.12.2012 23:01 -5,7 C 88 % 1014,3 hPa 0,0 l/m 2,9 km/h (1 Bft) SO 135 -7,4 C -5,7 C
06.12.2012 23:06 -5,7 C 88 % 1014,2 hPa 0,0 l/m 4,0 km/h (1 Bft) S-SO 157 -7,4 C -5,7 C
06.12.2012 23:11 -5,7 C 88 % 1014,2 hPa 0,0 l/m 1,8 km/h (1 Bft) S-SO 157 -7,4 C -5,7 C
06.12.2012 23:16 -5,7 C 88 % 1014,3 hPa 0,0 l/m 2,5 km/h (1 Bft) S-SW 202 -7,4 C -5,7 C
06.12.2012 23:21 -5,7 C 89 % 1014,0 hPa 0,0 l/m 4,0 km/h (1 Bft) S-SW 202 -7,2 C -5,7 C
06.12.2012 23:26 -5,6 C 89 % 1014,1 hPa 0,0 l/m 2,9 km/h (1 Bft) S-SW 202 -7,1 C -5,6 C
06.12.2012 23:31 -5,5 C 89 % 1014,1 hPa 0,0 l/m 2,2 km/h (1 Bft) S-SW 202 -7,0 C -5,5 C
06.12.2012 23:36 -5,4 C 89 % 1014,0 hPa 0,0 l/m 0,0 km/h (0 Bft) S-SW 202 -6,9 C -5,4 C
06.12.2012 23:41 -5,3 C 89 % 1014,1 hPa 0,0 l/m 0,0 km/h (0 Bft) S-SW 202 -6,8 C -5,3 C
06.12.2012 23:46 -5,2 C 89 % 1014,0 hPa 0,0 l/m 1,1 km/h (1 Bft) S-SW 202 -6,7 C -5,2 C
06.12.2012 23:51 -5,2 C 89 % 1014,1 hPa 0,0 l/m 0,0 km/h (0 Bft) S-SW 202 -6,7 C -5,2 C
06.12.2012 23:56 -5,3 C 89 % 1013,9 hPa 0,0 l/m 3,2 km/h (1 Bft) S-SO 157 -6,8 C -5,3 C
_ Min-Zeit 21:26 14:11 03:51 - 04:06 - - 19:06 18:41
Minimum _ -6,2 C 79 % 1001,0 hPa - 0,0 km/h (0 Bft) - - -8,2 C -9,5 C
_ Max-Zeit 11:21 08:11 20:31 00:01 14:11 - - 11:21 10:16
Maximum _ 0,1 C 92 % 1014,6 hPa 0,0 l/m 20,2 km/h
W-NW (4 Bft)
- - -2,4 C -1,0 C
Durchschnitt _ -2,8 C 86 % 1008,2 hPa #0,0 l/m 6,4 km/h (2 Bft) S-SW - -4,9 C -4,8 C
(c) by David Heller